sensor_id;sensor_type;location;lat;lon;timestamp;P1;durP1;ratioP1;P2;durP2;ratioP2
75297;SDS011;63896;45.990;18.688;2023-03-16T00:01:33;6.97;;;2.92;;
75297;SDS011;63896;45.990;18.688;2023-03-16T00:04:36;10.98;;;3.17;;
75297;SDS011;63896;45.990;18.688;2023-03-16T00:07:39;6.70;;;2.90;;
75297;SDS011;63896;45.990;18.688;2023-03-16T00:10:46;7.80;;;2.93;;
75297;SDS011;63896;45.990;18.688;2023-03-16T00:13:49;9.30;;;3.00;;
75297;SDS011;63896;45.990;18.688;2023-03-16T00:16:52;7.05;;;3.13;;
75297;SDS011;63896;45.990;18.688;2023-03-16T00:19:55;6.40;;;2.80;;
75297;SDS011;63896;45.990;18.688;2023-03-16T00:22:58;10.30;;;3.10;;
75297;SDS011;63896;45.990;18.688;2023-03-16T00:26:05;10.33;;;2.63;;
75297;SDS011;63896;45.990;18.688;2023-03-16T00:29:09;5.82;;;2.97;;
75297;SDS011;63896;45.990;18.688;2023-03-16T00:32:16;7.28;;;2.92;;
75297;SDS011;63896;45.990;18.688;2023-03-16T00:35:22;9.43;;;2.75;;
75297;SDS011;63896;45.990;18.688;2023-03-16T00:38:26;9.00;;;2.80;;
75297;SDS011;63896;45.990;18.688;2023-03-16T00:41:31;9.00;;;2.73;;
75297;SDS011;63896;45.990;18.688;2023-03-16T00:44:34;7.40;;;2.63;;
75297;SDS011;63896;45.990;18.688;2023-03-16T00:47:38;8.27;;;2.95;;
75297;SDS011;63896;45.990;18.688;2023-03-16T00:50:41;8.98;;;3.00;;
75297;SDS011;63896;45.990;18.688;2023-03-16T00:53:44;9.55;;;3.20;;
75297;SDS011;63896;45.990;18.688;2023-03-16T00:56:48;8.50;;;2.80;;
75297;SDS011;63896;45.990;18.688;2023-03-16T00:59:51;9.52;;;3.20;;
75297;SDS011;63896;45.990;18.688;2023-03-16T01:02:55;7.45;;;2.80;;
75297;SDS011;63896;45.990;18.688;2023-03-16T01:06:02;7.45;;;2.40;;
75297;SDS011;63896;45.990;18.688;2023-03-16T01:09:07;7.65;;;3.15;;
75297;SDS011;63896;45.990;18.688;2023-03-16T01:12:12;8.10;;;3.03;;
75297;SDS011;63896;45.990;18.688;2023-03-16T01:15:18;8.82;;;2.70;;
75297;SDS011;63896;45.990;18.688;2023-03-16T01:18:21;13.10;;;3.35;;
75297;SDS011;63896;45.990;18.688;2023-03-16T01:21:24;6.20;;;2.83;;
75297;SDS011;63896;45.990;18.688;2023-03-16T01:24:27;9.63;;;3.00;;
75297;SDS011;63896;45.990;18.688;2023-03-16T01:27:30;10.13;;;2.93;;
75297;SDS011;63896;45.990;18.688;2023-03-16T01:30:33;9.07;;;2.53;;
75297;SDS011;63896;45.990;18.688;2023-03-16T01:33:37;8.50;;;2.60;;
75297;SDS011;63896;45.990;18.688;2023-03-16T01:36:47;7.13;;;2.80;;
75297;SDS011;63896;45.990;18.688;2023-03-16T01:39:59;9.23;;;2.40;;
75297;SDS011;63896;45.990;18.688;2023-03-16T01:43:05;6.57;;;2.17;;
75297;SDS011;63896;45.990;18.688;2023-03-16T01:49:30;9.63;;;2.35;;
75297;SDS011;63896;45.990;18.688;2023-03-16T01:52:37;5.80;;;1.80;;
75297;SDS011;63896;45.990;18.688;2023-03-16T01:55:41;5.90;;;1.95;;
75297;SDS011;63896;45.990;18.688;2023-03-16T01:58:44;10.00;;;1.77;;
75297;SDS011;63896;45.990;18.688;2023-03-16T02:01:48;8.60;;;2.20;;
75297;SDS011;63896;45.990;18.688;2023-03-16T02:05:03;5.15;;;2.00;;
75297;SDS011;63896;45.990;18.688;2023-03-16T02:08:27;7.55;;;2.30;;
75297;SDS011;63896;45.990;18.688;2023-03-16T02:11:33;5.00;;;1.83;;
75297;SDS011;63896;45.990;18.688;2023-03-16T02:14:41;7.47;;;1.67;;
75297;SDS011;63896;45.990;18.688;2023-03-16T02:17:45;6.15;;;2.08;;
75297;SDS011;63896;45.990;18.688;2023-03-16T02:21:05;5.55;;;2.00;;
75297;SDS011;63896;45.990;18.688;2023-03-16T02:24:21;5.88;;;2.10;;
75297;SDS011;63896;45.990;18.688;2023-03-16T02:27:26;9.40;;;2.47;;
75297;SDS011;63896;45.990;18.688;2023-03-16T02:30:39;7.03;;;1.70;;
75297;SDS011;63896;45.990;18.688;2023-03-16T02:33:43;7.38;;;2.38;;
75297;SDS011;63896;45.990;18.688;2023-03-16T02:36:48;6.53;;;2.42;;
75297;SDS011;63896;45.990;18.688;2023-03-16T02:39:58;7.32;;;2.63;;
75297;SDS011;63896;45.990;18.688;2023-03-16T02:43:05;9.63;;;2.45;;
75297;SDS011;63896;45.990;18.688;2023-03-16T02:46:24;9.70;;;1.80;;
75297;SDS011;63896;45.990;18.688;2023-03-16T02:49:34;11.15;;;1.92;;
75297;SDS011;63896;45.990;18.688;2023-03-16T02:52:39;5.15;;;2.15;;
75297;SDS011;63896;45.990;18.688;2023-03-16T02:55:43;9.82;;;2.10;;
75297;SDS011;63896;45.990;18.688;2023-03-16T02:58:47;7.82;;;2.72;;
75297;SDS011;63896;45.990;18.688;2023-03-16T03:01:52;6.03;;;2.30;;
75297;SDS011;63896;45.990;18.688;2023-03-16T03:04:55;11.65;;;2.33;;
75297;SDS011;63896;45.990;18.688;2023-03-16T03:08:00;10.80;;;2.30;;
75297;SDS011;63896;45.990;18.688;2023-03-16T03:11:03;9.10;;;2.30;;
75297;SDS011;63896;45.990;18.688;2023-03-16T03:14:06;5.90;;;1.95;;
75297;SDS011;63896;45.990;18.688;2023-03-16T03:17:11;5.97;;;1.87;;
75297;SDS011;63896;45.990;18.688;2023-03-16T03:20:15;5.68;;;1.80;;
75297;SDS011;63896;45.990;18.688;2023-03-16T03:23:19;8.65;;;1.92;;
75297;SDS011;63896;45.990;18.688;2023-03-16T03:26:22;5.78;;;1.88;;
75297;SDS011;63896;45.990;18.688;2023-03-16T03:29:27;7.68;;;2.13;;
75297;SDS011;63896;45.990;18.688;2023-03-16T03:32:36;6.40;;;1.87;;
75297;SDS011;63896;45.990;18.688;2023-03-16T03:35:39;8.50;;;1.92;;
75297;SDS011;63896;45.990;18.688;2023-03-16T03:38:43;8.38;;;2.60;;
75297;SDS011;63896;45.990;18.688;2023-03-16T03:41:47;7.35;;;2.25;;
75297;SDS011;63896;45.990;18.688;2023-03-16T03:44:51;8.18;;;1.98;;
75297;SDS011;63896;45.990;18.688;2023-03-16T03:47:54;7.00;;;2.37;;
75297;SDS011;63896;45.990;18.688;2023-03-16T03:50:58;5.38;;;2.20;;
75297;SDS011;63896;45.990;18.688;2023-03-16T03:54:20;7.65;;;2.47;;
75297;SDS011;63896;45.990;18.688;2023-03-16T03:57:35;8.15;;;2.45;;
75297;SDS011;63896;45.990;18.688;2023-03-16T04:00:38;6.68;;;2.30;;
75297;SDS011;63896;45.990;18.688;2023-03-16T04:03:41;5.80;;;2.33;;
75297;SDS011;63896;45.990;18.688;2023-03-16T04:06:47;5.10;;;2.60;;
75297;SDS011;63896;45.990;18.688;2023-03-16T04:09:52;6.43;;;2.70;;
75297;SDS011;63896;45.990;18.688;2023-03-16T04:13:01;13.88;;;3.50;;
75297;SDS011;63896;45.990;18.688;2023-03-16T04:16:07;8.70;;;2.65;;
75297;SDS011;63896;45.990;18.688;2023-03-16T04:19:16;7.33;;;2.60;;
75297;SDS011;63896;45.990;18.688;2023-03-16T04:22:19;6.88;;;2.22;;
75297;SDS011;63896;45.990;18.688;2023-03-16T04:25:26;5.53;;;2.30;;
75297;SDS011;63896;45.990;18.688;2023-03-16T04:28:29;6.93;;;3.03;;
75297;SDS011;63896;45.990;18.688;2023-03-16T04:31:32;9.55;;;2.70;;
75297;SDS011;63896;45.990;18.688;2023-03-16T04:34:36;7.73;;;2.57;;
75297;SDS011;63896;45.990;18.688;2023-03-16T04:37:40;8.38;;;3.17;;
75297;SDS011;63896;45.990;18.688;2023-03-16T04:40:43;13.80;;;3.58;;
75297;SDS011;63896;45.990;18.688;2023-03-16T04:43:51;7.47;;;2.83;;
75297;SDS011;63896;45.990;18.688;2023-03-16T04:46:57;5.93;;;2.80;;
75297;SDS011;63896;45.990;18.688;2023-03-16T04:50:07;7.47;;;3.00;;
75297;SDS011;63896;45.990;18.688;2023-03-16T04:53:11;5.10;;;2.20;;
75297;SDS011;63896;45.990;18.688;2023-03-16T04:56:15;7.68;;;2.83;;
75297;SDS011;63896;45.990;18.688;2023-03-16T04:59:28;8.75;;;2.90;;
75297;SDS011;63896;45.990;18.688;2023-03-16T05:02:38;7.40;;;3.08;;
75297;SDS011;63896;45.990;18.688;2023-03-16T05:05:41;7.93;;;2.67;;
75297;SDS011;63896;45.990;18.688;2023-03-16T05:08:45;6.75;;;3.30;;
75297;SDS011;63896;45.990;18.688;2023-03-16T05:11:48;7.03;;;2.78;;
75297;SDS011;63896;45.990;18.688;2023-03-16T05:14:51;10.32;;;3.30;;
75297;SDS011;63896;45.990;18.688;2023-03-16T05:18:20;7.53;;;3.10;;
75297;SDS011;63896;45.990;18.688;2023-03-16T05:21:24;8.57;;;2.93;;
75297;SDS011;63896;45.990;18.688;2023-03-16T05:24:39;9.98;;;2.92;;
75297;SDS011;63896;45.990;18.688;2023-03-16T05:27:42;7.53;;;2.78;;
75297;SDS011;63896;45.990;18.688;2023-03-16T05:30:57;8.40;;;2.97;;
75297;SDS011;63896;45.990;18.688;2023-03-16T05:34:02;7.57;;;2.65;;
75297;SDS011;63896;45.990;18.688;2023-03-16T05:37:04;9.93;;;2.93;;
75297;SDS011;63896;45.990;18.688;2023-03-16T05:40:10;7.50;;;2.75;;
75297;SDS011;63896;45.990;18.688;2023-03-16T05:43:28;7.47;;;2.92;;
75297;SDS011;63896;45.990;18.688;2023-03-16T05:46:32;7.05;;;2.80;;
75297;SDS011;63896;45.990;18.688;2023-03-16T05:49:38;6.50;;;2.80;;
75297;SDS011;63896;45.990;18.688;2023-03-16T05:52:46;6.33;;;3.03;;
75297;SDS011;63896;45.990;18.688;2023-03-16T05:55:55;7.20;;;2.83;;
75297;SDS011;63896;45.990;18.688;2023-03-16T05:58:59;10.02;;;3.53;;
75297;SDS011;63896;45.990;18.688;2023-03-16T06:02:02;8.00;;;3.45;;
75297;SDS011;63896;45.990;18.688;2023-03-16T06:05:05;8.52;;;3.85;;
75297;SDS011;63896;45.990;18.688;2023-03-16T06:08:11;9.07;;;3.83;;
75297;SDS011;63896;45.990;18.688;2023-03-16T06:11:17;8.40;;;3.50;;
75297;SDS011;63896;45.990;18.688;2023-03-16T06:14:21;7.97;;;3.70;;
75297;SDS011;63896;45.990;18.688;2023-03-16T06:17:27;10.60;;;3.72;;
75297;SDS011;63896;45.990;18.688;2023-03-16T06:20:30;8.95;;;4.00;;
75297;SDS011;63896;45.990;18.688;2023-03-16T06:23:33;8.57;;;3.13;;
75297;SDS011;63896;45.990;18.688;2023-03-16T06:26:38;8.50;;;3.85;;
75297;SDS011;63896;45.990;18.688;2023-03-16T06:29:45;9.05;;;3.85;;
75297;SDS011;63896;45.990;18.688;2023-03-16T06:32:49;8.82;;;3.70;;
75297;SDS011;63896;45.990;18.688;2023-03-16T06:36:04;8.95;;;4.03;;
75297;SDS011;63896;45.990;18.688;2023-03-16T06:40:19;9.40;;;3.97;;
75297;SDS011;63896;45.990;18.688;2023-03-16T06:43:24;11.45;;;4.68;;
75297;SDS011;63896;45.990;18.688;2023-03-16T06:46:28;11.35;;;4.50;;
75297;SDS011;63896;45.990;18.688;2023-03-16T06:49:34;8.70;;;4.30;;
75297;SDS011;63896;45.990;18.688;2023-03-16T06:52:43;10.32;;;5.22;;
75297;SDS011;63896;45.990;18.688;2023-03-16T06:55:59;10.37;;;4.30;;
75297;SDS011;63896;45.990;18.688;2023-03-16T06:59:05;10.23;;;4.88;;
75297;SDS011;63896;45.990;18.688;2023-03-16T07:02:11;8.68;;;4.30;;
75297;SDS011;63896;45.990;18.688;2023-03-16T07:05:17;10.07;;;5.10;;
75297;SDS011;63896;45.990;18.688;2023-03-16T07:08:25;9.35;;;4.75;;
75297;SDS011;63896;45.990;18.688;2023-03-16T07:11:45;13.33;;;4.73;;
75297;SDS011;63896;45.990;18.688;2023-03-16T07:14:53;8.90;;;4.65;;
75297;SDS011;63896;45.990;18.688;2023-03-16T07:18:02;13.95;;;5.80;;
75297;SDS011;63896;45.990;18.688;2023-03-16T07:21:09;11.77;;;5.05;;
75297;SDS011;63896;45.990;18.688;2023-03-16T07:24:32;10.88;;;5.85;;
75297;SDS011;63896;45.990;18.688;2023-03-16T07:28:40;9.90;;;5.13;;
75297;SDS011;63896;45.990;18.688;2023-03-16T07:31:44;9.18;;;5.20;;
75297;SDS011;63896;45.990;18.688;2023-03-16T07:34:53;8.07;;;4.82;;
75297;SDS011;63896;45.990;18.688;2023-03-16T07:37:58;11.88;;;5.38;;
75297;SDS011;63896;45.990;18.688;2023-03-16T07:41:01;8.25;;;5.13;;
75297;SDS011;63896;45.990;18.688;2023-03-16T07:44:05;10.10;;;5.53;;
75297;SDS011;63896;45.990;18.688;2023-03-16T07:47:11;9.48;;;5.68;;
75297;SDS011;63896;45.990;18.688;2023-03-16T07:50:15;7.57;;;5.50;;
75297;SDS011;63896;45.990;18.688;2023-03-16T07:53:23;10.13;;;5.22;;
75297;SDS011;63896;45.990;18.688;2023-03-16T07:56:38;10.40;;;5.50;;
75297;SDS011;63896;45.990;18.688;2023-03-16T08:00:01;7.97;;;5.50;;
75297;SDS011;63896;45.990;18.688;2023-03-16T08:03:14;10.68;;;4.95;;
75297;SDS011;63896;45.990;18.688;2023-03-16T08:06:34;8.90;;;5.25;;
75297;SDS011;63896;45.990;18.688;2023-03-16T08:09:38;8.25;;;5.75;;
75297;SDS011;63896;45.990;18.688;2023-03-16T08:12:44;14.48;;;5.95;;
75297;SDS011;63896;45.990;18.688;2023-03-16T08:15:48;13.13;;;7.17;;
75297;SDS011;63896;45.990;18.688;2023-03-16T08:19:07;9.70;;;5.75;;
75297;SDS011;63896;45.990;18.688;2023-03-16T08:22:11;7.25;;;4.80;;
75297;SDS011;63896;45.990;18.688;2023-03-16T08:25:18;12.55;;;5.55;;
75297;SDS011;63896;45.990;18.688;2023-03-16T08:28:42;9.27;;;5.70;;
75297;SDS011;63896;45.990;18.688;2023-03-16T08:31:47;9.57;;;4.93;;
75297;SDS011;63896;45.990;18.688;2023-03-16T08:35:01;10.15;;;5.68;;
75297;SDS011;63896;45.990;18.688;2023-03-16T08:38:05;11.30;;;5.38;;
75297;SDS011;63896;45.990;18.688;2023-03-16T08:41:08;8.68;;;5.25;;
75297;SDS011;63896;45.990;18.688;2023-03-16T08:44:14;9.60;;;5.03;;
75297;SDS011;63896;45.990;18.688;2023-03-16T08:47:29;7.00;;;4.90;;
75297;SDS011;63896;45.990;18.688;2023-03-16T08:54:29;10.40;;;5.78;;
75297;SDS011;63896;45.990;18.688;2023-03-16T08:58:10;9.85;;;5.50;;
75297;SDS011;63896;45.990;18.688;2023-03-16T09:01:36;9.48;;;5.60;;
75297;SDS011;63896;45.990;18.688;2023-03-16T09:05:35;8.17;;;4.57;;
75297;SDS011;63896;45.990;18.688;2023-03-16T09:08:54;11.00;;;5.30;;
75297;SDS011;63896;45.990;18.688;2023-03-16T09:13:03;9.73;;;5.07;;
75297;SDS011;63896;45.990;18.688;2023-03-16T09:19:51;7.72;;;5.07;;
75297;SDS011;63896;45.990;18.688;2023-03-16T09:24:04;8.13;;;5.60;;
75297;SDS011;63896;45.990;18.688;2023-03-16T09:28:21;8.63;;;5.50;;
75297;SDS011;63896;45.990;18.688;2023-03-16T09:31:25;9.77;;;5.45;;
75297;SDS011;63896;45.990;18.688;2023-03-16T09:34:35;9.43;;;5.40;;
75297;SDS011;63896;45.990;18.688;2023-03-16T09:38:13;10.20;;;5.57;;
75297;SDS011;63896;45.990;18.688;2023-03-16T09:59:10;10.07;;;5.72;;
75297;SDS011;63896;45.990;18.688;2023-03-16T10:06:53;31.63;;;13.45;;
75297;SDS011;63896;45.990;18.688;2023-03-16T10:11:04;8.55;;;5.32;;
75297;SDS011;63896;45.990;18.688;2023-03-16T10:14:55;12.68;;;6.68;;
75297;SDS011;63896;45.990;18.688;2023-03-16T10:18:12;10.48;;;5.95;;
75297;SDS011;63896;45.990;18.688;2023-03-16T10:21:37;15.40;;;7.10;;
75297;SDS011;63896;45.990;18.688;2023-03-16T10:25:00;10.75;;;5.20;;
75297;SDS011;63896;45.990;18.688;2023-03-16T10:28:36;9.15;;;5.15;;
75297;SDS011;63896;45.990;18.688;2023-03-16T10:32:29;9.00;;;4.70;;
75297;SDS011;63896;45.990;18.688;2023-03-16T10:36:48;9.63;;;5.45;;
75297;SDS011;63896;45.990;18.688;2023-03-16T10:44:58;8.43;;;4.65;;
75297;SDS011;63896;45.990;18.688;2023-03-16T10:48:17;6.15;;;4.40;;
75297;SDS011;63896;45.990;18.688;2023-03-16T10:51:35;9.07;;;4.35;;
75297;SDS011;63896;45.990;18.688;2023-03-16T10:54:52;8.20;;;4.50;;
75297;SDS011;63896;45.990;18.688;2023-03-16T10:59:31;6.57;;;4.60;;
75297;SDS011;63896;45.990;18.688;2023-03-16T11:03:11;9.70;;;4.78;;
75297;SDS011;63896;45.990;18.688;2023-03-16T11:07:07;5.85;;;4.30;;
75297;SDS011;63896;45.990;18.688;2023-03-16T11:13:47;8.60;;;5.10;;
75297;SDS011;63896;45.990;18.688;2023-03-16T11:20:22;8.25;;;5.43;;
75297;SDS011;63896;45.990;18.688;2023-03-16T11:23:36;7.63;;;5.38;;
75297;SDS011;63896;45.990;18.688;2023-03-16T11:26:50;8.13;;;5.05;;
75297;SDS011;63896;45.990;18.688;2023-03-16T11:33:28;9.77;;;5.20;;
75297;SDS011;63896;45.990;18.688;2023-03-16T11:36:46;7.63;;;5.45;;
75297;SDS011;63896;45.990;18.688;2023-03-16T11:43:51;9.75;;;5.18;;
75297;SDS011;63896;45.990;18.688;2023-03-16T11:50:11;6.73;;;4.10;;
75297;SDS011;63896;45.990;18.688;2023-03-16T12:00:56;6.72;;;4.43;;
75297;SDS011;63896;45.990;18.688;2023-03-16T12:11:26;6.60;;;3.80;;
75297;SDS011;63896;45.990;18.688;2023-03-16T12:14:59;7.32;;;4.20;;
75297;SDS011;63896;45.990;18.688;2023-03-16T12:18:19;9.15;;;4.55;;
75297;SDS011;63896;45.990;18.688;2023-03-16T12:21:30;7.20;;;4.40;;
75297;SDS011;63896;45.990;18.688;2023-03-16T12:24:48;5.43;;;3.90;;
75297;SDS011;63896;45.990;18.688;2023-03-16T12:27:52;8.57;;;4.63;;
75297;SDS011;63896;45.990;18.688;2023-03-16T12:38:01;7.43;;;4.43;;
75297;SDS011;63896;45.990;18.688;2023-03-16T12:49:12;6.10;;;3.13;;
75297;SDS011;63896;45.990;18.688;2023-03-16T13:00:30;5.57;;;4.00;;
75297;SDS011;63896;45.990;18.688;2023-03-16T13:04:01;5.25;;;3.97;;
75297;SDS011;63896;45.990;18.688;2023-03-16T13:11:43;4.55;;;3.22;;
75297;SDS011;63896;45.990;18.688;2023-03-16T13:19:56;6.93;;;3.60;;
75297;SDS011;63896;45.990;18.688;2023-03-16T13:22:40;6.55;;;3.60;;
75297;SDS011;63896;45.990;18.688;2023-03-16T13:26:15;8.52;;;3.90;;
75297;SDS011;63896;45.990;18.688;2023-03-16T13:30:56;5.78;;;3.47;;
75297;SDS011;63896;45.990;18.688;2023-03-16T13:37:31;5.93;;;3.63;;
75297;SDS011;63896;45.990;18.688;2023-03-16T13:40:35;6.70;;;3.67;;
75297;SDS011;63896;45.990;18.688;2023-03-16T13:43:47;6.20;;;3.92;;
75297;SDS011;63896;45.990;18.688;2023-03-16T13:46:51;5.25;;;4.03;;
75297;SDS011;63896;45.990;18.688;2023-03-16T13:49:55;7.53;;;3.97;;
75297;SDS011;63896;45.990;18.688;2023-03-16T13:53:03;4.80;;;2.83;;
75297;SDS011;63896;45.990;18.688;2023-03-16T13:56:12;6.22;;;3.00;;
75297;SDS011;63896;45.990;18.688;2023-03-16T13:59:17;7.53;;;3.67;;
75297;SDS011;63896;45.990;18.688;2023-03-16T14:02:23;9.07;;;3.72;;
75297;SDS011;63896;45.990;18.688;2023-03-16T14:05:27;7.43;;;3.72;;
75297;SDS011;63896;45.990;18.688;2023-03-16T14:08:33;7.57;;;3.50;;
75297;SDS011;63896;45.990;18.688;2023-03-16T14:11:36;6.40;;;3.53;;
75297;SDS011;63896;45.990;18.688;2023-03-16T14:14:40;4.80;;;3.35;;
75297;SDS011;63896;45.990;18.688;2023-03-16T14:17:43;6.28;;;2.70;;
75297;SDS011;63896;45.990;18.688;2023-03-16T14:20:46;6.35;;;3.42;;
75297;SDS011;63896;45.990;18.688;2023-03-16T14:23:58;7.97;;;3.60;;
75297;SDS011;63896;45.990;18.688;2023-03-16T14:27:17;5.55;;;2.65;;
75297;SDS011;63896;45.990;18.688;2023-03-16T14:30:23;7.72;;;3.72;;
75297;SDS011;63896;45.990;18.688;2023-03-16T14:33:35;7.95;;;4.10;;
75297;SDS011;63896;45.990;18.688;2023-03-16T14:36:41;7.53;;;3.38;;
75297;SDS011;63896;45.990;18.688;2023-03-16T14:39:56;6.67;;;3.80;;
75297;SDS011;63896;45.990;18.688;2023-03-16T14:43:03;5.15;;;3.28;;
75297;SDS011;63896;45.990;18.688;2023-03-16T14:46:06;6.65;;;4.20;;
75297;SDS011;63896;45.990;18.688;2023-03-16T14:49:20;8.15;;;5.07;;
75297;SDS011;63896;45.990;18.688;2023-03-16T14:52:26;8.57;;;3.95;;
75297;SDS011;63896;45.990;18.688;2023-03-16T14:55:33;7.10;;;3.63;;
75297;SDS011;63896;45.990;18.688;2023-03-16T14:58:36;6.78;;;3.22;;
75297;SDS011;63896;45.990;18.688;2023-03-16T15:01:39;5.50;;;3.10;;
75297;SDS011;63896;45.990;18.688;2023-03-16T15:04:42;6.80;;;2.70;;
75297;SDS011;63896;45.990;18.688;2023-03-16T15:07:45;4.97;;;2.72;;
75297;SDS011;63896;45.990;18.688;2023-03-16T15:11:02;6.97;;;2.80;;
75297;SDS011;63896;45.990;18.688;2023-03-16T15:14:09;5.05;;;2.63;;
75297;SDS011;63896;45.990;18.688;2023-03-16T15:17:36;7.28;;;2.90;;
75297;SDS011;63896;45.990;18.688;2023-03-16T15:20:41;6.55;;;2.83;;
75297;SDS011;63896;45.990;18.688;2023-03-16T15:23:46;10.32;;;4.93;;
75297;SDS011;63896;45.990;18.688;2023-03-16T15:26:49;10.77;;;4.70;;
75297;SDS011;63896;45.990;18.688;2023-03-16T15:29:53;7.25;;;4.20;;
75297;SDS011;63896;45.990;18.688;2023-03-16T15:32:56;6.28;;;2.80;;
75297;SDS011;63896;45.990;18.688;2023-03-16T15:36:00;6.50;;;1.90;;
75297;SDS011;63896;45.990;18.688;2023-03-16T15:39:10;6.13;;;2.78;;
75297;SDS011;63896;45.990;18.688;2023-03-16T15:42:22;6.37;;;2.30;;
75297;SDS011;63896;45.990;18.688;2023-03-16T15:45:27;6.95;;;2.42;;
75297;SDS011;63896;45.990;18.688;2023-03-16T15:48:30;6.93;;;3.05;;
75297;SDS011;63896;45.990;18.688;2023-03-16T15:51:33;7.85;;;2.92;;
75297;SDS011;63896;45.990;18.688;2023-03-16T15:54:39;7.10;;;3.00;;
75297;SDS011;63896;45.990;18.688;2023-03-16T15:57:42;6.13;;;2.63;;
75297;SDS011;63896;45.990;18.688;2023-03-16T16:00:46;9.95;;;3.85;;
75297;SDS011;63896;45.990;18.688;2023-03-16T16:03:50;8.85;;;3.60;;
75297;SDS011;63896;45.990;18.688;2023-03-16T16:06:55;12.55;;;5.72;;
75297;SDS011;63896;45.990;18.688;2023-03-16T16:10:00;14.57;;;6.75;;
75297;SDS011;63896;45.990;18.688;2023-03-16T16:13:03;18.67;;;7.20;;
75297;SDS011;63896;45.990;18.688;2023-03-16T16:16:08;15.20;;;6.40;;
75297;SDS011;63896;45.990;18.688;2023-03-16T16:19:17;9.65;;;4.60;;
75297;SDS011;63896;45.990;18.688;2023-03-16T16:22:20;7.43;;;3.88;;
75297;SDS011;63896;45.990;18.688;2023-03-16T16:25:23;7.28;;;3.75;;
75297;SDS011;63896;45.990;18.688;2023-03-16T16:28:28;15.00;;;6.30;;
75297;SDS011;63896;45.990;18.688;2023-03-16T16:31:33;8.75;;;3.70;;
75297;SDS011;63896;45.990;18.688;2023-03-16T16:34:36;7.15;;;3.95;;
75297;SDS011;63896;45.990;18.688;2023-03-16T16:37:39;10.77;;;4.57;;
75297;SDS011;63896;45.990;18.688;2023-03-16T16:40:42;20.05;;;8.10;;
75297;SDS011;63896;45.990;18.688;2023-03-16T16:43:47;18.07;;;7.30;;
75297;SDS011;63896;45.990;18.688;2023-03-16T16:46:52;16.08;;;7.60;;
75297;SDS011;63896;45.990;18.688;2023-03-16T16:49:56;16.70;;;7.43;;
75297;SDS011;63896;45.990;18.688;2023-03-16T16:52:59;11.32;;;5.55;;
75297;SDS011;63896;45.990;18.688;2023-03-16T16:56:09;10.05;;;4.78;;
75297;SDS011;63896;45.990;18.688;2023-03-16T16:59:19;9.50;;;4.10;;
75297;SDS011;63896;45.990;18.688;2023-03-16T17:02:30;8.48;;;4.22;;
75297;SDS011;63896;45.990;18.688;2023-03-16T17:05:43;11.80;;;4.75;;
75297;SDS011;63896;45.990;18.688;2023-03-16T17:08:46;9.02;;;4.60;;
75297;SDS011;63896;45.990;18.688;2023-03-16T17:11:49;15.65;;;4.90;;
75297;SDS011;63896;45.990;18.688;2023-03-16T17:14:52;12.83;;;5.20;;
75297;SDS011;63896;45.990;18.688;2023-03-16T17:18:11;15.98;;;6.75;;
75297;SDS011;63896;45.990;18.688;2023-03-16T17:21:17;21.42;;;8.63;;
75297;SDS011;63896;45.990;18.688;2023-03-16T17:24:23;24.17;;;10.57;;
75297;SDS011;63896;45.990;18.688;2023-03-16T17:27:27;27.08;;;12.30;;
75297;SDS011;63896;45.990;18.688;2023-03-16T17:30:32;30.13;;;14.20;;
75297;SDS011;63896;45.990;18.688;2023-03-16T17:33:35;29.02;;;14.77;;
75297;SDS011;63896;45.990;18.688;2023-03-16T17:36:38;30.85;;;13.82;;
75297;SDS011;63896;45.990;18.688;2023-03-16T17:39:41;26.92;;;12.57;;
75297;SDS011;63896;45.990;18.688;2023-03-16T17:42:44;29.60;;;13.68;;
75297;SDS011;63896;45.990;18.688;2023-03-16T17:45:49;35.87;;;13.70;;
75297;SDS011;63896;45.990;18.688;2023-03-16T17:48:53;36.33;;;13.95;;
75297;SDS011;63896;45.990;18.688;2023-03-16T17:51:57;42.45;;;16.95;;
75297;SDS011;63896;45.990;18.688;2023-03-16T17:55:00;43.97;;;18.05;;
75297;SDS011;63896;45.990;18.688;2023-03-16T17:58:03;69.93;;;24.27;;
75297;SDS011;63896;45.990;18.688;2023-03-16T18:01:09;97.63;;;33.10;;
75297;SDS011;63896;45.990;18.688;2023-03-16T18:04:14;92.22;;;30.88;;
75297;SDS011;63896;45.990;18.688;2023-03-16T18:07:19;91.55;;;32.65;;
75297;SDS011;63896;45.990;18.688;2023-03-16T18:10:23;71.05;;;26.80;;
75297;SDS011;63896;45.990;18.688;2023-03-16T18:16:34;45.27;;;18.83;;
75297;SDS011;63896;45.990;18.688;2023-03-16T18:19:38;30.80;;;14.85;;
75297;SDS011;63896;45.990;18.688;2023-03-16T18:22:42;31.42;;;13.73;;
75297;SDS011;63896;45.990;18.688;2023-03-16T18:25:45;32.65;;;15.40;;
75297;SDS011;63896;45.990;18.688;2023-03-16T18:28:50;38.50;;;19.50;;
75297;SDS011;63896;45.990;18.688;2023-03-16T18:31:55;28.30;;;13.90;;
75297;SDS011;63896;45.990;18.688;2023-03-16T18:34:59;25.48;;;12.73;;
75297;SDS011;63896;45.990;18.688;2023-03-16T18:38:11;29.55;;;12.25;;
75297;SDS011;63896;45.990;18.688;2023-03-16T18:41:26;27.10;;;10.60;;
75297;SDS011;63896;45.990;18.688;2023-03-16T18:44:32;23.85;;;10.30;;
75297;SDS011;63896;45.990;18.688;2023-03-16T18:47:35;30.60;;;10.53;;
75297;SDS011;63896;45.990;18.688;2023-03-16T18:50:38;33.67;;;12.73;;
75297;SDS011;63896;45.990;18.688;2023-03-16T18:53:46;24.17;;;10.07;;
75297;SDS011;63896;45.990;18.688;2023-03-16T18:56:49;25.17;;;9.15;;
75297;SDS011;63896;45.990;18.688;2023-03-16T18:59:53;27.27;;;9.57;;
75297;SDS011;63896;45.990;18.688;2023-03-16T19:02:57;27.30;;;11.27;;
75297;SDS011;63896;45.990;18.688;2023-03-16T19:06:04;29.95;;;12.40;;
75297;SDS011;63896;45.990;18.688;2023-03-16T19:09:21;31.67;;;11.75;;
75297;SDS011;63896;45.990;18.688;2023-03-16T19:12:24;27.52;;;11.10;;
75297;SDS011;63896;45.990;18.688;2023-03-16T19:15:28;34.90;;;12.27;;
75297;SDS011;63896;45.990;18.688;2023-03-16T19:18:37;30.90;;;12.73;;
75297;SDS011;63896;45.990;18.688;2023-03-16T19:21:50;29.13;;;12.18;;
75297;SDS011;63896;45.990;18.688;2023-03-16T19:24:55;46.85;;;18.52;;
75297;SDS011;63896;45.990;18.688;2023-03-16T19:27:59;51.30;;;19.73;;
75297;SDS011;63896;45.990;18.688;2023-03-16T19:31:04;45.78;;;15.80;;
75297;SDS011;63896;45.990;18.688;2023-03-16T19:34:17;32.20;;;11.43;;
75297;SDS011;63896;45.990;18.688;2023-03-16T19:37:20;27.88;;;11.13;;
75297;SDS011;63896;45.990;18.688;2023-03-16T19:40:26;27.95;;;13.20;;
75297;SDS011;63896;45.990;18.688;2023-03-16T19:43:30;49.15;;;14.93;;
75297;SDS011;63896;45.990;18.688;2023-03-16T19:46:33;49.60;;;15.65;;
75297;SDS011;63896;45.990;18.688;2023-03-16T19:49:36;71.40;;;18.47;;
75297;SDS011;63896;45.990;18.688;2023-03-16T19:52:40;65.30;;;19.38;;
75297;SDS011;63896;45.990;18.688;2023-03-16T19:55:44;62.25;;;18.15;;
75297;SDS011;63896;45.990;18.688;2023-03-16T19:58:51;54.75;;;15.52;;
75297;SDS011;63896;45.990;18.688;2023-03-16T20:01:56;52.92;;;16.05;;
75297;SDS011;63896;45.990;18.688;2023-03-16T20:04:59;40.60;;;13.77;;
75297;SDS011;63896;45.990;18.688;2023-03-16T20:08:05;36.15;;;12.48;;
75297;SDS011;63896;45.990;18.688;2023-03-16T20:11:25;32.28;;;11.00;;
75297;SDS011;63896;45.990;18.688;2023-03-16T20:14:31;30.45;;;9.88;;
75297;SDS011;63896;45.990;18.688;2023-03-16T20:17:35;24.65;;;9.90;;
75297;SDS011;63896;45.990;18.688;2023-03-16T20:20:39;21.00;;;8.07;;
75297;SDS011;63896;45.990;18.688;2023-03-16T20:23:43;20.13;;;6.80;;
75297;SDS011;63896;45.990;18.688;2023-03-16T20:26:47;24.48;;;6.88;;
75297;SDS011;63896;45.990;18.688;2023-03-16T20:29:52;22.58;;;6.45;;